Latest Weather Observations for Swan Island

IDT60801

Issued at 11:31 pm EST Wednesday 4 May 2016 (issued every 30 minutes, with the page automatically refreshed every 10 minutes)

About weather observations | Map of weather stations | Latest weather observations for TAS | Other Formats
Station Details ID: 092123 Name: SWAN ISLAND Lat: -40.73 Lon: 148.12 Height: 15.0 m
Data from the previous 72 hours. | See also: Recent months at Swan Island
Date/Time
EST
Temp
°C
App
Temp
°C
Dew
Point
Rel
Hum
%
Delta-T
°C
Wind Press
QNH
hPa
Press
MSL
hPa
Rain
since 9 am
mm
Dir
 
Spd
km/h
Gust
km/h
Spd
kts
Gust
kts
04/11:30pm 16.1 7.3 9.5 65 3.4 NW 46 63 25 34 1012.3 1012.2 0.2
04/11:06pm 15.9 7.5 9.6 66 3.3 NW 44 63 24 34 1012.3 1012.2 0.2
04/11:00pm 15.8 7.4 9.5 66 3.3 NW 44 61 24 33 1012.4 1012.3 0.2
04/10:31pm 15.8 6.5 9.0 64 3.5 WNW 48 67 26 36 1012.6 1012.5 0.2
04/10:30pm 15.8 6.0 8.8 63 3.6 WNW 50 67 27 36 1012.5 1012.4 0.2
04/10:21pm 15.9 7.0 9.1 64 3.5 WNW 46 65 25 35 1012.6 1012.5 0.2
04/10:00pm 15.8 6.9 9.2 65 3.4 NW 46 65 25 35 1012.7 1012.6 0.2
04/09:30pm 15.6 6.8 9.7 68 3.1 NW 46 65 25 35 1012.8 1012.7 0.2
04/09:00pm 15.5 5.9 9.4 67 3.2 NW 50 69 27 37 1012.5 1012.4 0.2
04/08:54pm 15.7 6.3 10.2 70 2.9 NW 50 69 27 37 1012.6 1012.5 0.2
04/08:30pm 15.3 5.7 9.4 68 3.0 NW 50 63 27 34 1012.4 1012.3 0.2
04/08:00pm 14.9 5.6 9.1 68 3.0 NW 48 61 26 33 1012.3 1012.2 0.2
04/07:30pm 15.2 6.9 10.2 72 2.6 NW 44 65 24 35 1012.4 1012.3 0.2
04/07:10pm 14.4 8.6 10.8 79 1.9 NW 32 52 17 28 1012.3 1012.2 0.2
04/07:00pm 14.1 8.6 10.7 80 1.8 NW 30 41 16 22 1012.4 1012.3 0.2
04/06:32pm 12.9 5.0 9.2 78 1.9 WNW 41 59 22 32 1012.4 1012.3 0.2
04/06:30pm 12.9 4.6 9.2 78 1.9 WNW 43 59 23 32 1012.4 1012.3 0.2
04/06:18pm 14.3 7.6 9.5 73 2.5 NW 35 54 19 29 1011.9 1011.8 0.2
04/06:00pm 14.2 6.4 9.6 74 2.4 NW 41 50 22 27 1011.9 1011.8 0.2
04/05:30pm 14.5 6.8 8.7 68 2.9 WNW 39 52 21 28 1011.5 1011.4 0.2
04/05:05pm 14.3 8.1 9.5 73 2.5 WNW 32 57 17 31 1011.4 1011.3 0.2
04/05:00pm 14.1 8.0 9.9 76 2.2 NW 32 44 17 24 1011.4 1011.3 0.2
04/04:30pm 14.0 5.6 9.0 72 2.5 NW 43 54 23 29 1011.2 1011.1 0.2
04/04:00pm 13.7 6.9 9.2 74 2.3 NW 35 54 19 29 1010.7 1010.7 0.2
04/03:45pm 14.2 7.5 8.2 67 3.0 WNW 33 56 18 30 1010.5 1010.5 0.2
04/03:30pm 14.3 8.2 8.3 67 3.0 WNW 30 43 16 23 1010.5 1010.5 0.2
04/03:00pm 14.4 8.1 7.5 63 3.4 WNW 30 43 16 23 1010.5 1010.5 0.2
04/02:30pm 14.4 7.6 7.5 63 3.4 WNW 33 52 18 28 1010.4 1010.4 0.2
04/02:03pm 14.4 8.2 7.7 64 3.3 WNW 30 50 16 27 1010.5 1010.5 0.2
04/02:00pm 14.4 8.0 8.4 67 3.0 WNW 32 50 17 27 1010.5 1010.5 0.2
04/01:30pm 15.2 9.0 6.2 55 4.3 W 28 43 15 23 1010.3 1010.3 0.2
04/01:15pm 15.1 8.5 6.1 55 4.3 WNW 30 48 16 26 1010.3 1010.3 0.2
04/01:00pm 14.9 9.3 7.2 60 3.8 WNW 26 43 14 23 1010.3 1010.3 0.2
04/12:30pm 14.4 7.8 8.4 67 3.0 W 33 61 18 33 1010.5 1010.5 0.2
04/12:27pm 15.3 9.1 7.8 61 3.7 W 30 56 16 30 1010.5 1010.5 0.2
04/12:00pm 14.6 8.7 7.6 63 3.5 W 28 39 15 21 1010.6 1010.6 0.2
04/11:36am 13.8 7.0 6.7 62 3.4 W 32 52 17 28 1010.5 1010.5 0.0
04/11:30am 14.8 8.6 6.1 56 4.2 W 28 46 15 25 1010.5 1010.5 0.0
04/11:00am 15.7 9.2 6.7 55 4.4 W 30 50 16 27 1010.3 1010.3 0.0
04/10:53am 15.8 9.5 7.3 57 4.2 W 30 50 16 27 1010.3 1010.3 0.0
04/10:30am 14.7 9.3 8.0 64 3.3 W 26 41 14 22 1010.1 1010.1 0.0
04/10:00am 14.2 7.1 6.6 60 3.7 W 33 54 18 29 1009.7 1009.7 0.0
04/09:55am 14.2 7.3 6.3 59 3.8 W 32 54 17 29 1009.6 1009.6 0.0
04/09:30am 13.3 6.9 7.1 66 3.0 WNW 30 43 16 23 1009.4 1009.4 0.0
04/09:19am 13.9 7.8 6.7 62 3.5 W 28 46 15 25 1009.4 1009.4 0.0
04/09:00am 13.6 6.0 6.0 60 3.6 W 35 52 19 28 1009.1 1009.1 19.6
04/08:30am 13.3 4.8 5.0 57 3.8 W 39 57 21 31 1008.9 1008.9 19.6
04/08:04am 12.9 3.6 4.8 58 3.7 W 43 61 23 33 1008.5 1008.5 19.6
04/08:00am 12.8 2.8 4.3 56 3.9 W 46 61 25 33 1008.4 1008.4 19.6
04/07:43am 12.5 6.2 5.9 64 3.1 WSW 28 52 15 28 1008.1 1008.1 19.6
04/07:30am 12.0 6.1 5.9 66 2.9 WSW 26 52 14 28 1007.9 1007.9 19.6
04/07:10am 12.8 3.7 5.9 63 3.2 W 43 63 23 34 1007.1 1007.1 19.6
04/07:00am 12.6 2.3 4.8 59 3.6 W 48 63 26 34 1006.7 1006.7 19.6
04/06:30am 12.5 3.0 4.7 59 3.6 W 44 63 24 34 1006.2 1006.2 19.6
04/06:00am 12.3 4.5 6.6 68 2.7 W 37 57 20 31 1005.8 1005.8 19.6
04/05:30am 12.5 3.4 5.7 63 3.2 W 43 61 23 33 1005.1 1005.1 19.6
04/05:16am 12.5 3.3 5.4 62 3.3 W 43 61 23 33 1004.9 1004.9 19.6
04/05:00am 12.3 3.0 5.2 62 3.3 W 43 61 23 33 1004.3 1004.3 19.6
04/04:30am 12.3 2.9 5.5 63 3.2 W 44 65 24 35 1003.9 1003.9 19.6
04/04:00am 12.1 3.4 6.2 67 2.8 W 41 59 22 32 1003.6 1003.6 19.6
04/03:30am 11.7 4.2 6.4 70 2.5 W 35 57 19 31 1003.5 1003.5 19.6
04/03:00am 10.3 1.6 7.5 83 1.3 W 43 70 23 38 1003.2 1003.2 19.6
04/02:30am 10.3 3.4 7.2 81 1.5 W 33 54 18 29 1002.8 1002.8 19.2
04/02:03am 10.8 1.9 6.9 77 1.8 W 43 65 23 35 1002.4 1002.4 19.0
04/02:00am 11.3 2.9 7.2 76 2.0 W 41 57 22 31 1002.4 1002.4 19.0
04/01:37am 11.8 3.3 6.9 72 2.3 W 41 59 22 32 1002.1 1002.1 18.4
04/01:30am 12.5 3.1 7.0 69 2.6 W 46 61 25 33 1002.0 1002.0 18.4
04/01:01am 11.8 2.7 6.7 71 2.4 W 44 63 24 34 1001.6 1001.6 18.4
04/01:00am 11.9 2.8 6.8 71 2.4 W 44 63 24 34 1001.6 1001.6 18.4
04/12:34am 10.5 4.2 7.4 81 1.5 W 30 48 16 26 1001.8 1001.8 18.4
04/12:30am 10.3 4.7 7.0 80 1.6 W 26 39 14 21 1001.9 1001.9 18.4
04/12:12am 10.1 2.6 6.3 77 1.8 WSW 35 61 19 33 1001.8 1001.8 18.2
04/12:00am 12.8 4.5 5.9 63 3.3 W 39 61 21 33 1001.1 1001.1 18.2
 
Date/Time
EST
Temp
°C
App
Temp
°C
Dew
Point
Rel
Hum
%
Delta-T
°C
Wind Press
QNH
hPa
Press
MSL
hPa
Rain
since 9 am
mm
Dir
 
Spd
km/h
Gust
km/h
Spd
kts
Gust
kts
03/11:30pm 12.4 2.9 6.5 67 2.8 W 46 67 25 36 1000.5 1000.5 18.2
03/11:11pm 12.4 3.6 7.3 71 2.5 WNW 43 61 23 33 1000.5 1000.5 18.2
03/11:00pm 11.5 3.1 7.4 76 2.0 W 41 57 22 31 1000.8 1000.8 18.2
03/10:30pm 13.1 4.7 5.8 61 3.4 WNW 39 61 21 33 1000.2 1000.2 18.0
03/10:00pm 12.8 3.3 6.6 66 3.0 W 46 67 25 36 1000.1 1000.1 18.0
03/09:30pm 12.1 4.1 7.6 74 2.2 W 39 61 21 33 999.8 999.8 18.0
03/09:00pm 11.5 2.7 5.6 67 2.8 W 41 67 22 36 999.5 999.5 18.0
03/08:30pm 12.7 3.2 6.5 66 3.0 W 46 76 25 41 998.2 998.2 18.0
03/08:00pm 12.4 3.0 7.1 70 2.6 W 46 67 25 36 997.6 997.6 18.0
03/07:33pm 12.4 4.3 8.5 77 1.9 WNW 41 65 22 35 997.1 997.1 18.0
03/07:30pm 12.0 3.7 7.9 76 2.0 W 41 56 22 30 997.0 997.0 18.0
03/07:12pm 11.2 0.4 7.7 79 1.7 W 54 72 29 39 996.7 996.7 18.0
03/07:00pm 11.3 1.5 8.7 84 1.3 W 50 72 27 39 997.0 997.0 18.0
03/06:30pm 11.7 4.3 9.8 88 1.0 W 39 59 21 32 996.1 996.1 17.8
03/06:16pm 11.6 3.5 10.2 91 0.7 W 43 65 23 35 995.7 995.7 17.8
03/06:00pm 11.8 3.6 10.4 91 0.7 W 44 63 24 34 995.0 995.0 17.8
03/05:30pm 11.8 3.3 10.7 93 0.6 W 46 70 25 38 994.2 994.2 17.2
03/05:00pm 12.5 4.3 11.7 95 0.4 W 46 69 25 37 993.0 993.0 16.4
03/04:38pm 12.5 4.9 11.9 96 0.3 W 43 61 23 33 992.3 992.3 15.8
03/04:30pm 12.4 4.2 11.8 96 0.3 W 46 61 25 33 992.2 992.2 15.8
03/04:08pm 12.8 3.5 11.9 94 0.5 WNW 52 76 28 41 991.7 991.7 14.8
03/04:06pm 13.1 3.5 12.2 94 0.5 WNW 54 76 29 41 991.7 991.7 14.6
03/04:03pm 14.4 4.7 13.6 95 0.4 NW 57 76 31 41 990.7 990.7 14.0
03/04:00pm 14.4 4.0 13.6 95 0.5 NW 61 76 33 41 990.6 990.6 13.6
03/03:49pm 14.5 4.9 13.9 96 0.3 NW 57 78 31 42 990.8 990.8 13.0
03/03:40pm 14.5 8.0 13.9 96 0.3 NW 41 67 22 36 991.0 991.0 12.4
03/03:30pm 14.1 8.2 13.5 96 0.3 WNW 37 52 20 28 991.3 991.3 11.4
03/03:00pm 14.1 7.7 13.3 95 0.4 WNW 39 54 21 29 991.8 991.8 8.2
03/02:51pm 13.9 8.6 13.1 95 0.4 WNW 33 54 18 29 991.9 991.9 7.2
03/02:30pm 13.5 8.6 12.6 94 0.5 WNW 30 41 16 22 992.3 992.3 5.2
03/02:00pm 13.1 7.0 11.8 92 0.7 W 35 52 19 28 992.4 992.4 2.2
03/01:30pm 14.3 4.4 11.1 81 1.7 WNW 54 95 29 51 992.6 992.6 0.0
03/01:27pm 15.2 4.1 11.6 79 1.9 WNW 61 95 33 51 992.5 992.5 0.0
03/01:00pm 17.3 4.6 13.0 76 2.4 NW 72 91 39 49 991.5 991.5 0.0
03/12:33pm 16.9 2.9 12.6 76 2.4 NW 78 96 42 52 991.9 991.9 0.0
03/12:30pm 16.8 2.0 12.5 76 2.4 NW 82 96 44 52 992.0 992.0 0.0
03/12:00pm 17.2 0.9 12.1 72 2.8 NW 89 109 48 59 992.1 992.1 0.0
03/11:30am 17.8 3.0 11.4 66 3.5 NW 80 107 43 58 992.3 992.3 0.0
03/11:07am 17.9 4.2 12.4 70 3.1 NW 76 95 41 51 992.7 992.7 0.0
03/11:00am 17.8 3.3 12.3 70 3.1 NW 80 96 43 52 992.7 992.7 0.0
03/10:30am 18.0 3.9 12.2 69 3.2 NW 78 98 42 53 992.9 992.9 0.0
03/10:00am 17.8 5.2 12.3 70 3.1 NNW 70 89 38 48 993.7 993.7 0.0
03/09:34am 17.7 4.7 12.2 70 3.0 NW 72 91 39 49 994.0 994.0 0.0
03/09:30am 17.7 4.7 12.2 70 3.0 NNW 72 91 39 49 994.0 994.0 0.0
03/09:16am 17.6 5.0 12.1 70 3.0 NNW 70 91 38 49 994.2 994.2 0.0
03/09:00am 17.8 5.8 12.3 70 3.1 NNW 67 82 36 44 994.6 994.6 3.2
03/08:30am 17.7 4.8 12.4 71 2.9 NNW 72 93 39 50 994.9 994.9 3.2
03/08:00am 17.6 4.2 12.1 70 3.1 NNW 74 93 40 50 995.0 995.0 3.2
03/07:40am 17.5 4.7 11.5 68 3.3 NW 70 89 38 48 995.0 995.0 3.2
03/07:30am 17.6 5.3 12.5 72 2.8 NW 69 83 37 45 995.4 995.4 3.2
03/07:00am 17.5 4.1 12.0 70 3.0 NW 74 95 40 51 995.7 995.7 3.2
03/06:30am 17.4 3.8 11.4 68 3.3 NW 74 95 40 51 995.5 995.5 3.2
03/06:00am 17.6 3.6 11.4 67 3.4 NW 76 95 41 51 995.9 995.9 3.2
03/05:30am 17.4 4.7 11.4 68 3.3 NW 69 89 37 48 996.3 996.3 3.2
03/05:18am 17.5 4.7 11.5 68 3.3 NW 70 89 38 48 996.3 996.3 3.2
03/05:00am 17.4 4.7 11.2 67 3.4 NW 69 83 37 45 996.7 996.7 3.2
03/04:45am 17.3 4.6 11.1 67 3.3 NW 69 89 37 48 996.8 996.8 3.2
03/04:30am 17.3 4.6 11.1 67 3.3 NW 69 85 37 46 996.9 996.9 3.2
03/04:00am 17.0 4.3 11.3 69 3.1 NW 69 83 37 45 996.8 996.8 3.2
03/03:37am 16.9 4.0 11.4 70 3.0 NW 70 91 38 49 996.8 996.8 3.2
03/03:30am 16.9 4.0 11.2 69 3.1 NW 70 87 38 47 997.0 997.0 3.2
03/03:15am 16.9 4.1 11.6 71 2.9 NW 70 89 38 48 997.3 997.3 3.2
03/03:00am 16.7 3.4 11.0 69 3.1 NW 72 87 39 47 997.3 997.3 3.2
03/02:39am 16.8 3.7 10.6 67 3.3 NW 70 95 38 51 997.5 997.5 3.2
03/02:30am 16.9 3.6 11.2 69 3.1 NW 72 91 39 49 998.0 998.0 3.2
03/02:12am 16.8 3.8 10.9 68 3.2 NW 70 93 38 50 998.1 998.1 3.2
03/02:00am 16.8 4.5 11.3 70 3.0 NW 67 83 36 45 998.6 998.6 3.2
03/01:43am 16.8 4.3 10.6 67 3.3 NW 67 85 36 46 998.6 998.6 3.2
03/01:30am 16.9 3.9 11.0 68 3.2 NW 70 85 38 46 999.0 999.0 3.2
03/01:07am 16.9 4.1 11.0 68 3.2 NW 69 87 37 47 999.3 999.3 3.2
03/01:00am 16.8 4.0 10.9 68 3.2 NW 69 82 37 44 999.6 999.6 3.2
03/12:50am 16.9 3.9 11.0 68 3.2 NW 70 89 38 48 999.8 999.8 3.2
03/12:30am 16.7 3.7 10.8 68 3.2 NW 70 87 38 47 1000.1 1000.1 3.2
03/12:00am 16.6 3.5 10.7 68 3.2 NW 70 89 38 48 1000.4 1000.4 3.2
 
Date/Time
EST
Temp
°C
App
Temp
°C
Dew
Point
Rel
Hum
%
Delta-T
°C
Wind Press
QNH
hPa
Press
MSL
hPa
Rain
since 9 am
mm
Dir
 
Spd
km/h
Gust
km/h
Spd
kts
Gust
kts
02/11:32pm 16.5 3.4 10.4 67 3.2 NW 70 89 38 48 1000.7 1000.7 3.2
02/11:30pm 16.6 3.5 10.7 68 3.1 NW 70 82 38 44 1000.8 1000.8 3.2
02/11:00pm 16.6 4.2 10.9 69 3.1 NW 67 83 36 45 1001.4 1001.4 3.2
02/10:30pm 16.5 4.0 10.8 69 3.0 NW 67 80 36 43 1001.9 1001.9 3.2
02/10:11pm 16.5 4.0 10.8 69 3.0 NW 67 85 36 46 1002.1 1002.1 3.2
02/10:00pm 16.5 3.7 11.0 70 3.0 NW 69 83 37 45 1002.2 1002.2 3.2
02/09:31pm 16.4 3.5 10.7 69 3.0 NW 69 87 37 47 1002.4 1002.4 3.2
02/09:30pm 16.4 3.3 10.7 69 3.0 NW 70 87 38 47 1002.4 1002.4 3.2
02/09:24pm 16.4 3.5 10.7 69 3.0 NW 69 87 37 47 1002.4 1002.4 3.2
02/09:00pm 16.3 3.7 10.2 67 3.2 NW 67 83 36 45 1002.6 1002.6 3.2
02/08:36pm 16.4 3.9 10.5 68 3.1 NW 67 85 36 46 1002.7 1002.7 3.2
02/08:30pm 16.6 4.3 11.3 71 2.9 NW 67 80 36 43 1002.9 1002.9 3.2
02/08:17pm 16.4 4.4 10.9 70 2.9 NW 65 83 35 45 1003.0 1003.0 3.2
02/08:00pm 16.3 3.5 10.8 70 2.9 NW 69 83 37 45 1003.0 1003.0 3.2
02/07:37pm 16.2 4.0 10.3 68 3.1 NW 65 85 35 46 1003.1 1003.1 3.2
02/07:30pm 16.3 3.8 10.6 69 3.0 NW 67 83 36 45 1003.3 1003.3 3.2
02/07:00pm 16.1 4.2 10.2 68 3.1 NW 63 80 34 43 1003.5 1003.5 3.2
02/06:30pm 16.0 4.6 10.5 70 2.9 NW 61 74 33 40 1003.8 1003.8 3.2
02/06:00pm 15.8 3.9 10.1 69 3.0 NW 63 78 34 42 1003.8 1003.8 3.2
02/05:30pm 15.7 5.1 10.5 71 2.7 NW 57 70 31 38 1004.0 1004.0 3.2
02/05:00pm 15.7 5.0 10.2 70 2.9 NW 57 74 31 40 1004.0 1004.0 3.2
02/04:32pm 15.6 5.1 10.4 71 2.7 NW 56 74 30 40 1004.4 1004.4 3.2
02/04:30pm 15.5 4.7 10.1 70 2.8 NW 57 74 31 40 1004.4 1004.4 3.2
02/04:02pm 15.3 5.5 10.1 71 2.7 NW 52 72 28 39 1004.5 1004.5 3.2
02/04:00pm 15.3 5.2 10.3 72 2.6 NW 54 72 29 39 1004.5 1004.5 3.2
02/03:30pm 15.4 4.7 10.4 72 2.6 NW 57 76 31 41 1004.6 1004.6 3.2
02/03:09pm 15.6 6.4 11.0 74 2.5 NW 50 69 27 37 1004.5 1004.5 3.2
02/03:00pm 15.4 5.5 11.0 75 2.4 NW 54 70 29 38 1004.4 1004.4 3.2
02/02:40pm 15.0 5.0 10.8 76 2.2 NW 54 74 29 40 1004.4 1004.4 3.2
02/02:30pm 15.4 6.2 10.8 74 2.4 NW 50 65 27 35 1004.6 1004.6 3.2
02/02:07pm 15.4 6.0 10.2 71 2.7 WNW 50 69 27 37 1004.7 1004.7 3.2
02/02:00pm 15.6 5.5 10.4 71 2.8 WNW 54 70 29 38 1004.7 1004.7 3.2
02/01:31pm 14.5 5.2 10.7 78 2.0 WNW 50 69 27 37 1004.6 1004.6 3.2
02/01:30pm 14.6 5.4 11.0 79 1.9 WNW 50 69 27 37 1004.6 1004.6 3.2
02/01:03pm 13.7 7.8 12.4 92 0.7 WNW 35 63 19 34 1005.1 1005.1 3.0
02/01:00pm 13.8 7.9 12.5 92 0.7 WNW 35 50 19 27 1005.2 1005.2 3.0
02/12:30pm 13.4 6.2 12.0 91 0.8 WNW 41 59 22 32 1005.5 1005.5 2.6
02/12:02pm 14.2 5.0 11.0 81 1.7 WNW 50 69 27 37 1005.9 1005.9 0.6
02/12:00pm 14.0 4.5 11.0 82 1.6 WNW 52 69 28 37 1005.8 1005.8 0.6
02/11:30am 13.7 5.7 11.2 85 1.3 WNW 44 65 24 35 1006.3 1006.3 0.6
02/11:10am 14.7 7.0 10.3 75 2.3 WNW 41 65 22 35 1006.5 1006.5 0.2
02/11:00am 14.9 7.2 10.1 73 2.5 WNW 41 56 22 30 1006.5 1006.5 0.2
02/10:30am 13.4 7.2 11.3 87 1.1 WNW 35 52 19 28 1006.9 1006.9 0.2
02/10:17am 12.6 4.8 9.6 82 1.5 WNW 41 61 22 33 1007.0 1007.0 0.2
02/10:00am 15.1 7.6 10.7 75 2.3 WNW 41 54 22 29 1006.7 1006.7 0.2
02/09:31am 14.6 7.6 11.2 80 1.8 WNW 39 61 21 33 1006.6 1006.6 0.2
02/09:30am 14.4 7.3 10.8 79 1.9 WNW 39 54 21 29 1006.6 1006.6 0.2
02/09:00am 15.4 8.4 10.0 70 2.8 WNW 37 56 20 30 1006.9 1006.9 2.6
02/08:59am 15.4 8.3 9.5 68 3.1 WNW 37 56 20 30 1006.9 1006.9 2.6
02/08:30am 14.5 8.5 10.9 79 1.9 WNW 33 48 18 26 1007.1 1007.1 2.6
02/08:00am 13.0 6.0 9.8 81 1.6 W 37 65 20 35 1007.6 1007.6 2.6
02/07:30am 13.8 6.6 9.3 74 2.3 W 37 57 20 31 1007.2 1007.2 2.6
02/07:07am 14.0 7.7 9.0 72 2.5 W 32 54 17 29 1006.8 1006.8 2.6
02/07:00am 13.7 6.9 9.2 74 2.3 W 35 52 19 28 1006.9 1006.9 2.6
02/06:30am 14.1 6.6 8.1 67 3.0 W 37 56 20 30 1006.8 1006.8 2.6
02/06:13am 14.0 6.6 8.2 68 2.9 W 37 57 20 31 1006.8 1006.8 2.6
02/06:00am 13.7 4.9 7.9 68 2.9 W 44 63 24 34 1006.7 1006.7 2.6
02/05:30am 13.8 5.5 7.8 67 3.0 W 41 61 22 33 1006.8 1006.8 2.6
02/05:11am 13.4 4.6 8.0 70 2.7 W 44 63 24 34 1006.7 1006.7 2.6
02/05:00am 13.5 4.8 7.9 69 2.8 W 43 59 23 32 1006.6 1006.6 2.6
02/04:30am 13.4 5.0 7.4 67 2.9 W 41 69 22 37 1006.4 1006.4 2.6
02/04:27am 13.5 5.3 8.1 70 2.7 W 41 61 22 33 1006.4 1006.4 2.6
02/04:00am 13.8 4.4 7.3 65 3.2 W 46 65 25 35 1005.9 1005.9 2.6
02/03:32am 13.6 3.9 7.6 67 2.9 W 48 70 26 38 1005.7 1005.7 2.6
02/03:30am 13.6 3.9 7.6 67 2.9 W 48 65 26 35 1005.7 1005.7 2.6
02/03:00am 13.4 4.7 7.6 68 2.9 W 43 61 23 33 1005.6 1005.6 2.6
02/02:49am 13.2 3.6 7.9 70 2.6 W 48 67 26 36 1005.6 1005.6 2.6
02/02:30am 13.6 3.6 8.0 69 2.8 W 50 65 27 35 1005.8 1005.8 2.6
02/02:04am 13.2 3.9 7.6 69 2.7 W 46 65 25 35 1005.7 1005.7 2.6
02/02:00am 13.3 3.4 8.2 71 2.5 W 50 67 27 36 1005.8 1005.8 2.6
02/01:30am 13.6 4.0 7.8 68 2.9 W 48 74 26 40 1005.7 1005.7 2.6
02/01:00am 13.4 2.4 6.7 64 3.2 W 54 74 29 40 1005.5 1005.5 2.6
02/12:30am 13.4 2.7 6.5 63 3.3 W 52 74 28 40 1005.5 1005.5 2.6
02/12:00am 13.3 1.9 6.9 65 3.1 W 56 76 30 41 1005.3 1005.3 2.6

Other Formats:

Comma delimited format used in spreadsheet applications
http://www.bom.gov.au/fwo/IDT60801/IDT60801.95985.axf

JavaScript Object Notation format (JSON) in row-major order
http://www.bom.gov.au/fwo/IDT60801/IDT60801.95985.json